Time;durP1;ratioP1;P1;durP2;ratioP2;P2;SDS_P1;SDS_P2;PMS_P1;PMS_P2;Temp;Humidity;BMP_temperature;BMP_pressure;BME280_temperature;BME280_humidity;BME280_pressure;Samples;Min_cycle;Max_cycle;Signal;HPM_P1;HPM_P2
2022/12/18 00:02:11;;;;;;;26.67;15.68;;;;;;;;;;4980470;28;20046;-84
2022/12/18 00:04:39;;;;;;;28.23;16.33;;;;;;;;;;4995687;28;20448;-82
2022/12/18 00:07:06;;;;;;;36.75;18.63;;;;;;;;;;4989933;28;20517;-83
2022/12/18 00:09:33;;;;;;;34.63;16.33;;;;;;;;;;4979312;28;20050;-83
2022/12/18 00:12:07;;;;;;;33.88;16.77;;;;;;;;;;4991436;28;20046;-82
2022/12/18 00:14:42;;;;;;;28.83;14.60;;;;;;;;;;4994320;28;20054;-84
2022/12/18 00:17:10;;;;;;;33.28;18.27;;;;;;;;;;5007435;28;20037;-82
2022/12/18 00:19:37;;;;;;;33.40;16.20;;;;;;;;;;4988492;28;20034;-83
2022/12/18 00:22:06;;;;;;;28.50;16.65;;;;;;;;;;5019095;28;20053;-83
2022/12/18 00:24:33;;;;;;;34.95;17.55;;;;;;;;;;4979996;28;20128;-83
2022/12/18 00:27:00;;;;;;;42.65;17.05;;;;;;;;;;4985429;28;20049;-82
2022/12/18 00:29:28;;;;;;;39.10;18.88;;;;;;;;;;4986710;28;20481;-83
2022/12/18 00:31:55;;;;;;;33.00;15.65;;;;;;;;;;4989949;28;20046;-83
2022/12/18 00:34:22;;;;;;;36.25;17.58;;;;;;;;;;5008015;28;20049;-82
2022/12/18 00:36:52;;;;;;;28.73;13.52;;;;;;;;;;4975419;28;20518;-82
2022/12/18 00:39:19;;;;;;;34.08;15.95;;;;;;;;;;5003693;28;20046;-83
2022/12/18 00:44:32;;;;;;;36.30;18.23;;;;;;;;;;5002946;28;20262;-82
2022/12/18 00:47:00;;;;;;;33.65;15.95;;;;;;;;;;5011549;28;20041;-82
2022/12/18 00:49:27;;;;;;;33.40;16.95;;;;;;;;;;4992776;28;20065;-83
2022/12/18 00:51:54;;;;;;;37.78;18.10;;;;;;;;;;4974432;28;20049;-84
2022/12/18 00:54:22;;;;;;;33.75;16.00;;;;;;;;;;4992679;28;20490;-82
2022/12/18 00:56:49;;;;;;;29.67;14.95;;;;;;;;;;4995653;28;20053;-82
2022/12/18 00:59:18;;;;;;;35.30;15.35;;;;;;;;;;4998587;28;20060;-84
2022/12/18 01:01:46;;;;;;;31.88;16.95;;;;;;;;;;4989160;28;20133;-83
2022/12/18 01:04:14;;;;;;;26.83;14.50;;;;;;;;;;4999790;28;20482;-82
2022/12/18 01:06:45;;;;;;;32.63;15.57;;;;;;;;;;4992058;28;20053;-83
2022/12/18 01:09:12;;;;;;;28.80;15.00;;;;;;;;;;5005977;28;20046;-84
2022/12/18 01:11:39;;;;;;;31.77;15.88;;;;;;;;;;5024299;28;20460;-82
2022/12/18 01:14:07;;;;;;;29.90;14.75;;;;;;;;;;4971697;28;20082;-82
2022/12/18 01:16:37;;;;;;;29.15;15.35;;;;;;;;;;4986139;28;20136;-82
2022/12/18 01:19:04;;;;;;;31.85;16.17;;;;;;;;;;4971140;28;20160;-81
2022/12/18 01:21:33;;;;;;;23.45;13.55;;;;;;;;;;4993326;28;20053;-84
2022/12/18 01:24:03;;;;;;;26.35;14.65;;;;;;;;;;5008548;28;20049;-83
2022/12/18 01:26:31;;;;;;;26.10;13.15;;;;;;;;;;5007316;28;20072;-82
2022/12/18 01:28:58;;;;;;;32.85;16.08;;;;;;;;;;4994710;28;20042;-82
2022/12/18 01:31:27;;;;;;;31.85;16.70;;;;;;;;;;5009122;28;20128;-83
2022/12/18 01:33:55;;;;;;;30.48;13.85;;;;;;;;;;4996188;28;20115;-83
2022/12/18 01:36:26;;;;;;;31.20;14.50;;;;;;;;;;5005440;28;20490;-82
2022/12/18 01:38:53;;;;;;;26.20;12.40;;;;;;;;;;4997130;28;20052;-82
2022/12/18 01:41:23;;;;;;;22.90;14.05;;;;;;;;;;4978874;28;20048;-82
2022/12/18 01:43:56;;;;;;;32.60;15.80;;;;;;;;;;4979402;28;20056;-83
2022/12/18 01:46:24;;;;;;;30.67;14.25;;;;;;;;;;4964399;28;20072;-83
2022/12/18 01:49:00;;;;;;;25.90;13.90;;;;;;;;;;4971966;28;20566;-81
2022/12/18 01:51:30;;;;;;;31.27;14.82;;;;;;;;;;4985813;28;20055;-82
2022/12/18 01:53:58;;;;;;;32.38;15.88;;;;;;;;;;5013446;28;20054;-82
2022/12/18 01:56:26;;;;;;;21.58;11.38;;;;;;;;;;4990790;28;20044;-82
2022/12/18 01:59:03;;;;;;;31.35;15.55;;;;;;;;;;4991397;28;20077;-83
2022/12/18 02:01:31;;;;;;;31.90;15.98;;;;;;;;;;4979585;28;21254;-82
2022/12/18 02:04:21;;;;;;;33.63;15.68;;;;;;;;;;4975112;28;20052;-81
2022/12/18 02:06:52;;;;;;;23.75;16.40;;;;;;;;;;4981591;28;20602;-82
2022/12/18 02:09:21;;;;;;;35.63;21.85;;;;;;;;;;4986677;28;20057;-82
2022/12/18 02:11:58;;;;;;;38.15;17.25;;;;;;;;;;4985156;28;20053;-83
2022/12/18 02:14:41;;;;;;;36.05;16.02;;;;;;;;;;4988579;28;20054;-84
2022/12/18 02:17:08;;;;;;;28.25;14.30;;;;;;;;;;4965705;28;20065;-82
2022/12/18 02:19:48;;;;;;;32.58;16.00;;;;;;;;;;4982873;28;20042;-81
2022/12/18 02:22:15;;;;;;;26.23;14.20;;;;;;;;;;4988563;28;20750;-82
2022/12/18 02:24:58;;;;;;;29.00;14.18;;;;;;;;;;4980319;28;20406;-82
2022/12/18 02:27:25;;;;;;;32.33;16.08;;;;;;;;;;5009774;23;20076;-76
2022/12/18 02:29:54;;;;;;;31.85;15.73;;;;;;;;;;5019826;28;20029;-76
2022/12/18 02:32:30;;;;;;;36.03;15.25;;;;;;;;;;4998357;28;20059;-75
2022/12/18 02:34:58;;;;;;;33.65;15.63;;;;;;;;;;5014115;28;20045;-75
2022/12/18 02:37:28;;;;;;;31.38;14.18;;;;;;;;;;5009959;28;20095;-76
2022/12/18 02:40:00;;;;;;;30.48;14.63;;;;;;;;;;5012247;28;20046;-76
2022/12/18 02:42:28;;;;;;;33.28;15.15;;;;;;;;;;5015428;28;20073;-75
2022/12/18 02:44:56;;;;;;;28.55;13.93;;;;;;;;;;5010647;28;20096;-75
2022/12/18 02:47:28;;;;;;;33.03;14.90;;;;;;;;;;5004930;28;21078;-76
2022/12/18 02:50:13;;;;;;;33.93;20.23;;;;;;;;;;5013963;28;20076;-75
2022/12/18 02:52:44;;;;;;;33.63;18.63;;;;;;;;;;5013137;28;20076;-76
2022/12/18 02:55:11;;;;;;;33.10;16.35;;;;;;;;;;5007093;28;20046;-75
2022/12/18 02:57:52;;;;;;;36.95;15.57;;;;;;;;;;4994174;28;20053;-76
2022/12/18 03:00:24;;;;;;;27.92;14.15;;;;;;;;;;5000011;28;20156;-75
2022/12/18 03:03:00;;;;;;;32.47;15.05;;;;;;;;;;4979683;28;20710;-76
2022/12/18 03:05:34;;;;;;;33.55;16.25;;;;;;;;;;4993761;28;20046;-76
2022/12/18 03:08:05;;;;;;;34.15;14.95;;;;;;;;;;5012475;28;20124;-75
2022/12/18 03:10:42;;;;;;;24.17;11.73;;;;;;;;;;5021222;28;20263;-76
2022/12/18 03:13:14;;;;;;;30.25;14.90;;;;;;;;;;5013858;28;20042;-76
2022/12/18 03:15:47;;;;;;;31.83;15.23;;;;;;;;;;4992309;28;20129;-75
2022/12/18 03:18:20;;;;;;;36.40;20.75;;;;;;;;;;4993971;28;20050;-76
2022/12/18 03:20:50;;;;;;;42.85;17.58;;;;;;;;;;5001398;28;20556;-76
2022/12/18 03:23:23;;;;;;;30.80;15.43;;;;;;;;;;5015546;28;20041;-76
2022/12/18 03:25:56;;;;;;;28.63;15.38;;;;;;;;;;4996153;28;20095;-75
2022/12/18 03:28:28;;;;;;;29.67;14.20;;;;;;;;;;4988391;28;20046;-76
2022/12/18 03:31:01;;;;;;;33.55;16.10;;;;;;;;;;5012972;28;20615;-76
2022/12/18 03:33:38;;;;;;;30.50;15.00;;;;;;;;;;4993985;28;20096;-76
2022/12/18 03:36:06;;;;;;;30.85;16.35;;;;;;;;;;5007231;28;20486;-76
2022/12/18 03:38:33;;;;;;;31.10;14.23;;;;;;;;;;5013088;28;20076;-76
2022/12/18 03:41:05;;;;;;;29.40;15.13;;;;;;;;;;5009788;28;20046;-76
2022/12/18 03:43:40;;;;;;;29.20;14.07;;;;;;;;;;4999995;28;20045;-76
2022/12/18 03:46:17;;;;;;;48.28;19.15;;;;;;;;;;5007250;28;20071;-75
2022/12/18 03:48:48;;;;;;;32.78;15.73;;;;;;;;;;5017580;28;20055;-74
2022/12/18 03:51:27;;;;;;;35.13;16.83;;;;;;;;;;5016907;28;20033;-76
2022/12/18 03:53:58;;;;;;;35.58;16.33;;;;;;;;;;4997730;28;20041;-77
2022/12/18 03:56:31;;;;;;;35.85;17.25;;;;;;;;;;4976167;28;20085;-77
2022/12/18 03:58:59;;;;;;;34.80;16.58;;;;;;;;;;4989324;28;20052;-76
2022/12/18 04:01:32;;;;;;;33.20;16.33;;;;;;;;;;4993061;28;20049;-76
2022/12/18 04:04:01;;;;;;;34.15;15.88;;;;;;;;;;5000681;28;20041;-75
2022/12/18 04:06:31;;;;;;;;;;;;;;;;;;5017901;28;20045;-74
2022/12/18 04:08:59;;;;;;;29.35;15.13;;;;;;;;;;5016689;28;20251;-75
2022/12/18 04:11:28;;;;;;;41.78;37.92;;;;;;;;;;5020707;28;20069;-76
2022/12/18 04:13:57;;;;;;;30.90;14.95;;;;;;;;;;5015300;28;20037;-77
2022/12/18 04:16:25;;;;;;;34.33;16.02;;;;;;;;;;4999198;28;20107;-74
2022/12/18 04:18:55;;;;;;;29.35;15.02;;;;;;;;;;5016415;28;20241;-74
2022/12/18 04:21:24;;;;;;;31.80;15.20;;;;;;;;;;5028643;28;20308;-74
2022/12/18 04:23:52;;;;;;;30.17;15.73;;;;;;;;;;5029520;28;20509;-74
2022/12/18 04:26:22;;;;;;;33.80;16.02;;;;;;;;;;4999794;28;20276;-75
2022/12/18 04:29:08;;;;;;;41.35;21.00;;;;;;;;;;5033617;28;20064;-74
2022/12/18 04:31:36;;;;;;;31.90;15.07;;;;;;;;;;5015083;28;20507;-74
2022/12/18 04:34:03;;;;;;;41.22;35.92;;;;;;;;;;5017371;28;20045;-74
2022/12/18 04:36:37;;;;;;;35.15;17.95;;;;;;;;;;5006551;28;20058;-74
2022/12/18 04:39:04;;;;;;;33.65;16.17;;;;;;;;;;4999306;28;20050;-76
2022/12/18 04:41:32;;;;;;;30.55;14.57;;;;;;;;;;5024346;28;20045;-75
2022/12/18 04:43:59;;;;;;;33.92;16.50;;;;;;;;;;5003199;28;20052;-75
2022/12/18 04:46:26;;;;;;;33.28;15.80;;;;;;;;;;5019481;28;20053;-76
2022/12/18 04:48:54;;;;;;;32.03;14.23;;;;;;;;;;5020004;28;20049;-74
2022/12/18 04:51:21;;;;;;;35.42;15.65;;;;;;;;;;5016405;28;20053;-75
2022/12/18 04:53:53;;;;;;;36.60;17.10;;;;;;;;;;5011225;28;20481;-76
2022/12/18 04:56:20;;;;;;;33.47;15.63;;;;;;;;;;5021958;28;20101;-75
2022/12/18 04:58:47;;;;;;;28.05;16.05;;;;;;;;;;5016668;28;20379;-76
2022/12/18 05:01:15;;;;;;;45.13;24.38;;;;;;;;;;5009521;28;20100;-75
2022/12/18 05:03:43;;;;;;;31.20;14.48;;;;;;;;;;5010538;28;20046;-75
2022/12/18 05:06:11;;;;;;;31.90;15.02;;;;;;;;;;5005661;28;20096;-75
2022/12/18 05:08:39;;;;;;;32.17;15.85;;;;;;;;;;5016395;28;20779;-75
2022/12/18 05:11:11;;;;;;;25.08;13.93;;;;;;;;;;5015387;28;20081;-74
2022/12/18 05:13:39;;;;;;;36.25;15.30;;;;;;;;;;5018597;28;20061;-75
2022/12/18 05:16:07;;;;;;;27.83;15.23;;;;;;;;;;4991433;28;20038;-75
2022/12/18 05:18:34;;;;;;;32.05;14.65;;;;;;;;;;5015172;28;20038;-75
2022/12/18 05:21:02;;;;;;;26.67;12.93;;;;;;;;;;5016802;28;20467;-75
2022/12/18 05:23:29;;;;;;;33.38;14.38;;;;;;;;;;5016181;28;20123;-74
2022/12/18 05:25:58;;;;;;;27.60;13.32;;;;;;;;;;5021840;28;20056;-76
2022/12/18 05:28:26;;;;;;;26.63;12.93;;;;;;;;;;5029204;28;20049;-75
2022/12/18 05:30:55;;;;;;;33.65;15.00;;;;;;;;;;5022172;28;20270;-75
2022/12/18 05:33:24;;;;;;;32.80;13.00;;;;;;;;;;5020252;28;20091;-75
2022/12/18 05:35:52;;;;;;;30.10;13.27;;;;;;;;;;5022298;28;20065;-75
2022/12/18 05:38:20;;;;;;;25.88;11.63;;;;;;;;;;5024320;28;20403;-76
2022/12/18 05:40:50;;;;;;;24.88;12.95;;;;;;;;;;5034216;28;20068;-75
2022/12/18 05:43:19;;;;;;;31.05;14.30;;;;;;;;;;5024289;28;20045;-75
2022/12/18 05:45:48;;;;;;;28.42;13.48;;;;;;;;;;5025715;28;20437;-74
2022/12/18 05:48:15;;;;;;;33.38;14.38;;;;;;;;;;5012213;28;20122;-74
2022/12/18 05:50:45;;;;;;;36.75;14.50;;;;;;;;;;5021075;28;20076;-75
2022/12/18 05:53:13;;;;;;;41.50;16.67;;;;;;;;;;5025720;28;20053;-75
2022/12/18 05:55:40;;;;;;;37.63;15.40;;;;;;;;;;5018273;28;20052;-74
2022/12/18 05:58:09;;;;;;;42.05;17.13;;;;;;;;;;5008555;28;20042;-73
2022/12/18 06:00:39;;;;;;;29.77;13.77;;;;;;;;;;5006952;28;20050;-76
2022/12/18 06:03:07;;;;;;;31.98;15.05;;;;;;;;;;5002924;28;20038;-76
2022/12/18 06:05:37;;;;;;;29.15;12.82;;;;;;;;;;5011438;28;20045;-76
2022/12/18 06:08:04;;;;;;;24.52;12.23;;;;;;;;;;5011841;28;20452;-76
2022/12/18 06:10:32;;;;;;;30.63;14.38;;;;;;;;;;5017106;28;20489;-75
2022/12/18 06:12:59;;;;;;;25.10;12.20;;;;;;;;;;5010852;28;20069;-75
2022/12/18 06:15:26;;;;;;;32.38;14.23;;;;;;;;;;5014337;28;20091;-75
2022/12/18 06:17:54;;;;;;;28.42;12.63;;;;;;;;;;5012069;28;20486;-75
2022/12/18 06:20:21;;;;;;;33.33;13.65;;;;;;;;;;5018692;28;20105;-74
2022/12/18 06:22:48;;;;;;;37.28;18.17;;;;;;;;;;5017845;28;20038;-74
2022/12/18 06:25:16;;;;;;;31.10;13.98;;;;;;;;;;5015287;28;20065;-75
2022/12/18 06:27:43;;;;;;;30.15;13.77;;;;;;;;;;5012598;28;20050;-74
2022/12/18 06:30:11;;;;;;;20.65;11.82;;;;;;;;;;5012964;28;20546;-73
2022/12/18 06:32:39;;;;;;;30.83;14.90;;;;;;;;;;5013939;28;20049;-74
2022/12/18 06:35:06;;;;;;;30.00;13.65;;;;;;;;;;5007209;28;20486;-75
2022/12/18 06:37:34;;;;;;;25.48;13.75;;;;;;;;;;5013688;28;20037;-77
2022/12/18 06:40:01;;;;;;;33.05;13.77;;;;;;;;;;5009181;28;20057;-75
2022/12/18 06:42:29;;;;;;;30.95;13.25;;;;;;;;;;5005743;28;20060;-76
2022/12/18 06:44:56;;;;;;;24.83;12.60;;;;;;;;;;5003233;28;20041;-75
2022/12/18 06:47:24;;;;;;;30.00;13.57;;;;;;;;;;5013609;28;20119;-74
2022/12/18 06:49:51;;;;;;;24.35;11.98;;;;;;;;;;4992309;28;20132;-74
2022/12/18 06:52:18;;;;;;;33.85;15.02;;;;;;;;;;5005650;28;20117;-76
2022/12/18 06:54:45;;;;;;;28.63;12.75;;;;;;;;;;4999485;28;20081;-73
2022/12/18 06:57:13;;;;;;;34.15;14.48;;;;;;;;;;5018437;28;20065;-76
2022/12/18 06:59:40;;;;;;;26.58;13.30;;;;;;;;;;5007910;28;20554;-76
2022/12/18 07:02:11;;;;;;;30.23;14.02;;;;;;;;;;4989517;28;20038;-75
2022/12/18 07:04:38;;;;;;;35.37;22.90;;;;;;;;;;5008835;28;20049;-76
2022/12/18 07:07:06;;;;;;;32.25;15.07;;;;;;;;;;5007905;28;20052;-75
2022/12/18 07:09:33;;;;;;;27.13;13.40;;;;;;;;;;5014608;28;20472;-76
2022/12/18 07:12:00;;;;;;;26.45;14.05;;;;;;;;;;5004848;28;20081;-75
2022/12/18 07:14:28;;;;;;;25.60;14.70;;;;;;;;;;5014594;28;20111;-75
2022/12/18 07:16:56;;;;;;;36.15;15.20;;;;;;;;;;5011535;28;20137;-76
2022/12/18 07:19:30;;;;;;;39.25;14.75;;;;;;;;;;5012956;28;20034;-76
2022/12/18 07:22:01;;;;;;;33.97;14.93;;;;;;;;;;5008964;28;20049;-76
2022/12/18 07:24:29;;;;;;;31.85;14.15;;;;;;;;;;5013916;28;20041;-75
2022/12/18 07:26:56;;;;;;;30.27;13.32;;;;;;;;;;5010402;28;20223;-74
2022/12/18 07:29:24;;;;;;;28.90;13.27;;;;;;;;;;5007027;28;20034;-76
2022/12/18 07:31:54;;;;;;;33.22;14.55;;;;;;;;;;5009639;28;20088;-75
2022/12/18 07:34:22;;;;;;;31.45;13.65;;;;;;;;;;5007996;28;20069;-76
2022/12/18 07:36:49;;;;;;;23.75;11.82;;;;;;;;;;5012132;28;20048;-75
2022/12/18 07:39:16;;;;;;;28.65;14.02;;;;;;;;;;5014538;28;20405;-74
2022/12/18 07:42:30;;;;;;;24.98;13.18;;;;;;;;;;5016201;28;20100;-75
2022/12/18 07:44:34;;;;;;;30.48;23.70;;;;;;;;;;5016246;28;20423;-76
2022/12/18 07:47:01;;;;;;;19.15;11.13;;;;;;;;;;4999758;28;20059;-77
2022/12/18 07:49:30;;;;;;;22.58;11.13;;;;;;;;;;5014521;28;20042;-75
2022/12/18 07:51:58;;;;;;;25.95;12.45;;;;;;;;;;5008076;28;20091;-74
2022/12/18 07:54:25;;;;;;;31.90;15.75;;;;;;;;;;5009792;28;20045;-76
2022/12/18 07:56:52;;;;;;;29.45;14.60;;;;;;;;;;5013148;28;20081;-76
2022/12/18 07:59:20;;;;;;;24.23;11.65;;;;;;;;;;5022941;28;20493;-75
2022/12/18 08:01:47;;;;;;;25.35;14.50;;;;;;;;;;5013570;28;20045;-74
2022/12/18 08:04:15;;;;;;;32.95;14.25;;;;;;;;;;5020524;28;20124;-75
2022/12/18 08:06:42;;;;;;;25.20;11.73;;;;;;;;;;5015662;28;20034;-75
2022/12/18 08:09:14;;;;;;;24.73;13.57;;;;;;;;;;5019041;28;20029;-75
2022/12/18 08:11:42;;;;;;;31.67;14.02;;;;;;;;;;5018339;28;20072;-75
2022/12/18 08:14:09;;;;;;;27.63;12.93;;;;;;;;;;5020810;28;20037;-75
2022/12/18 08:16:36;;;;;;;23.35;11.35;;;;;;;;;;5018877;28;20034;-75
2022/12/18 08:19:04;;;;;;;30.08;14.68;;;;;;;;;;5014803;28;20696;-75
2022/12/18 08:21:35;;;;;;;23.33;11.80;;;;;;;;;;5017403;28;20155;-73
2022/12/18 08:24:02;;;;;;;18.48;12.70;;;;;;;;;;5016939;28;20506;-76
2022/12/18 08:26:30;;;;;;;22.50;12.27;;;;;;;;;;5008588;28;20076;-75
2022/12/18 08:28:59;;;;;;;23.48;13.13;;;;;;;;;;5051217;23;20049;-83
2022/12/18 08:31:27;;;;;;;34.10;14.18;;;;;;;;;;5030870;28;20069;-83
2022/12/18 08:33:55;;;;;;;24.58;13.30;;;;;;;;;;5031804;28;20144;-83
2022/12/18 08:36:23;;;;;;;28.40;14.70;;;;;;;;;;5021609;28;20042;-84
2022/12/18 08:38:55;;;;;;;25.63;13.75;;;;;;;;;;5023539;28;20095;-84
2022/12/18 08:41:23;;;;;;;30.55;13.40;;;;;;;;;;5021918;28;20099;-84
2022/12/18 08:46:38;;;;;;;26.77;13.82;;;;;;;;;;5020311;28;20041;-83
2022/12/18 08:49:06;;;;;;;21.42;13.70;;;;;;;;;;5025277;28;20064;-82
2022/12/18 08:51:34;;;;;;;25.88;12.50;;;;;;;;;;5005811;28;20041;-83
2022/12/18 08:54:01;;;;;;;26.45;16.80;;;;;;;;;;5023185;28;20783;-83
2022/12/18 08:56:30;;;;;;;28.95;13.98;;;;;;;;;;5022201;28;20144;-84
2022/12/18 08:58:58;;;;;;;27.75;14.27;;;;;;;;;;5020904;28;20040;-83
2022/12/18 09:01:27;;;;;;;30.13;13.90;;;;;;;;;;5019144;28;20046;-83
2022/12/18 09:03:55;;;;;;;23.88;12.70;;;;;;;;;;5031402;28;20053;-83
2022/12/18 09:06:26;;;;;;;23.10;11.95;;;;;;;;;;5024932;28;20621;-84
2022/12/18 09:08:53;;;;;;;26.35;11.82;;;;;;;;;;5019026;28;20132;-83
2022/12/18 09:11:25;;;;;;;23.90;12.27;;;;;;;;;;5020066;28;21206;-82
2022/12/18 09:13:53;;;;;;;26.02;14.90;;;;;;;;;;5002098;28;20046;-83
2022/12/18 09:16:21;;;;;;;20.65;11.80;;;;;;;;;;5016203;28;20033;-85
2022/12/18 09:19:00;;;;;;;28.00;13.30;;;;;;;;;;4991974;28;20038;-83
2022/12/18 09:21:32;;;;;;;30.02;21.30;;;;;;;;;;5024870;28;20041;-84
2022/12/18 09:24:04;;;;;;;23.38;13.45;;;;;;;;;;4993641;28;20053;-84
2022/12/18 09:26:36;;;;;;;24.30;14.43;;;;;;;;;;5022927;28;20050;-83
2022/12/18 09:29:03;;;;;;;39.08;20.75;;;;;;;;;;5027156;28;20141;-83
2022/12/18 09:31:36;;;;;;;34.92;16.23;;;;;;;;;;5027985;28;20037;-84
2022/12/18 09:34:07;;;;;;;30.42;19.08;;;;;;;;;;5028465;28;20057;-83
2022/12/18 09:36:34;;;;;;;30.00;20.23;;;;;;;;;;5023511;28;20502;-84
2022/12/18 09:39:02;;;;;;;25.02;13.27;;;;;;;;;;5019439;28;20109;-82
2022/12/18 09:41:37;;;;;;;27.50;15.25;;;;;;;;;;5028189;28;20041;-82
2022/12/18 09:44:23;;;;;;;27.88;14.32;;;;;;;;;;5025643;28;20038;-86
2022/12/18 09:47:09;;;;;;;28.67;13.77;;;;;;;;;;5021632;28;20049;-84
2022/12/18 09:49:44;;;;;;;26.30;15.65;;;;;;;;;;5021469;28;20038;-85
2022/12/18 09:52:14;;;;;;;27.52;13.98;;;;;;;;;;5024200;28;20131;-84
2022/12/18 09:54:43;;;;;;;25.52;12.63;;;;;;;;;;5022776;28;20087;-84
2022/12/18 09:57:15;;;;;;;32.20;16.17;;;;;;;;;;5019905;28;20109;-84
2022/12/18 09:59:44;;;;;;;39.58;19.25;;;;;;;;;;5021536;28;20096;-84
2022/12/18 10:02:36;;;;;;;28.58;13.27;;;;;;;;;;5025041;28;20038;-85
2022/12/18 10:05:14;;;;;;;29.42;15.38;;;;;;;;;;5011049;28;20049;-85
2022/12/18 10:08:30;;;;;;;27.17;14.98;;;;;;;;;;5031608;28;20049;-87
2022/12/18 10:11:13;;;;;;;32.92;15.57;;;;;;;;;;5013398;28;20048;-84
2022/12/18 10:14:06;;;;;;;32.88;15.40;;;;;;;;;;5008534;28;20137;-83
2022/12/18 10:16:37;;;;;;;37.80;17.63;;;;;;;;;;4996131;28;20140;-82
2022/12/18 10:19:06;;;;;;;26.50;15.25;;;;;;;;;;5041517;23;20063;-74
2022/12/18 10:21:34;;;;;;;27.50;14.13;;;;;;;;;;5044586;28;20108;-74
2022/12/18 10:24:08;;;;;;;25.55;12.88;;;;;;;;;;5023619;28;20051;-73
2022/12/18 10:26:36;;;;;;;90.97;50.25;;;;;;;;;;5030208;28;20042;-74
2022/12/18 10:29:10;;;;;;;36.90;19.40;;;;;;;;;;5021138;28;20055;-74
2022/12/18 10:31:37;;;;;;;28.90;22.20;;;;;;;;;;5042320;28;20107;-73
2022/12/18 10:34:08;;;;;;;26.00;13.63;;;;;;;;;;5018622;28;20037;-73
2022/12/18 10:36:35;;;;;;;28.15;14.43;;;;;;;;;;5041438;28;20090;-73
2022/12/18 10:39:22;;;;;;;21.27;11.48;;;;;;;;;;5047457;28;20036;-73
2022/12/18 10:41:49;;;;;;;24.58;12.77;;;;;;;;;;5017643;28;20061;-73
2022/12/18 10:44:20;;;;;;;26.27;13.27;;;;;;;;;;5017443;28;20053;-74
2022/12/18 10:46:55;;;;;;;21.58;11.20;;;;;;;;;;5041728;28;20045;-74
2022/12/18 10:49:27;;;;;;;25.75;23.40;;;;;;;;;;5010831;28;20135;-74
2022/12/18 10:52:13;;;;;;;26.80;13.23;;;;;;;;;;5042012;28;20055;-74
2022/12/18 10:54:40;;;;;;;24.80;13.00;;;;;;;;;;5027887;28;20416;-73
2022/12/18 10:57:26;;;;;;;24.73;12.77;;;;;;;;;;5045575;28;20049;-73
2022/12/18 10:59:55;;;;;;;18.80;11.10;;;;;;;;;;5046989;28;20037;-75
2022/12/18 11:02:27;;;;;;;21.40;10.90;;;;;;;;;;5021700;28;20472;-74
2022/12/18 11:04:55;;;;;;;23.27;11.95;;;;;;;;;;5015828;28;20139;-72
2022/12/18 11:07:22;;;;;;;24.40;11.57;;;;;;;;;;5008770;28;20037;-72
2022/12/18 11:10:01;;;;;;;27.67;13.90;;;;;;;;;;5007663;28;20044;-73
2022/12/18 11:12:29;;;;;;;26.25;13.48;;;;;;;;;;5030639;28;20040;-73
2022/12/18 11:14:57;;;;;;;23.20;13.52;;;;;;;;;;5042321;28;20045;-73
2022/12/18 11:17:33;;;;;;;26.50;13.57;;;;;;;;;;5045216;28;20118;-73
2022/12/18 11:20:02;;;;;;;22.00;12.23;;;;;;;;;;5042269;28;20530;-74
2022/12/18 11:22:31;;;;;;;22.75;12.85;;;;;;;;;;5025669;28;20048;-73
2022/12/18 11:25:00;;;;;;;28.02;13.77;;;;;;;;;;5046193;28;20039;-74
2022/12/18 11:27:52;;;;;;;30.25;13.85;;;;;;;;;;5037836;28;20044;-73
2022/12/18 11:30:25;;;;;;;24.35;13.68;;;;;;;;;;5013793;28;20107;-73
2022/12/18 11:33:12;;;;;;;30.02;18.17;;;;;;;;;;5031702;28;20057;-74
2022/12/18 11:35:52;;;;;;;29.15;14.00;;;;;;;;;;5037305;28;20131;-75
2022/12/18 11:38:25;;;;;;;30.50;13.40;;;;;;;;;;5046475;28;20075;-74
2022/12/18 11:40:55;;;;;;;29.40;14.48;;;;;;;;;;5001613;28;20065;-74
2022/12/18 11:43:28;;;;;;;28.20;14.98;;;;;;;;;;5033030;28;20178;-73
2022/12/18 11:46:00;;;;;;;30.90;15.15;;;;;;;;;;5003075;28;20041;-75
2022/12/18 11:48:31;;;;;;;24.15;12.10;;;;;;;;;;5042253;28;20049;-75
2022/12/18 11:51:03;;;;;;;28.92;13.60;;;;;;;;;;5016837;28;20049;-75
2022/12/18 11:53:31;;;;;;;24.88;13.57;;;;;;;;;;4990377;28;20061;-75
2022/12/18 11:56:12;;;;;;;26.67;14.75;;;;;;;;;;5030845;28;20493;-74
2022/12/18 11:58:51;;;;;;;28.08;13.90;;;;;;;;;;5034336;28;20436;-75
2022/12/18 12:01:22;;;;;;;28.30;17.58;;;;;;;;;;5018025;28;20045;-73
2022/12/18 12:03:52;;;;;;;21.23;12.27;;;;;;;;;;5038744;28;20335;-75
2022/12/18 12:06:29;;;;;;;25.92;12.43;;;;;;;;;;5035588;28;20123;-74
2022/12/18 12:09:09;;;;;;;21.83;12.95;;;;;;;;;;5014858;28;20069;-75
2022/12/18 12:11:39;;;;;;;24.50;13.88;;;;;;;;;;5014703;28;20052;-74
2022/12/18 12:14:23;;;;;;;20.35;12.57;;;;;;;;;;5026080;28;20403;-73
2022/12/18 12:17:04;;;;;;;27.75;13.68;;;;;;;;;;5038789;28;20128;-73
2022/12/18 12:19:34;;;;;;;25.70;13.70;;;;;;;;;;5017104;28;20144;-74
2022/12/18 12:22:21;;;;;;;24.73;13.25;;;;;;;;;;5030278;28;20041;-76
2022/12/18 12:24:55;;;;;;;21.60;11.90;;;;;;;;;;5004176;28;20103;-73
2022/12/18 12:27:34;;;;;;;25.67;13.75;;;;;;;;;;5029754;28;20069;-74
2022/12/18 12:30:09;;;;;;;25.83;13.82;;;;;;;;;;5041322;28;20736;-74
2022/12/18 12:32:48;;;;;;;22.95;14.20;;;;;;;;;;5001282;28;20503;-74
2022/12/18 12:35:16;;;;;;;23.23;12.18;;;;;;;;;;5037553;28;20047;-74
2022/12/18 12:37:50;;;;;;;20.52;11.85;;;;;;;;;;5037708;28;20048;-73
2022/12/18 12:40:19;;;;;;;24.25;13.85;;;;;;;;;;5024516;28;20057;-74
2022/12/18 12:43:24;;;;;;;29.15;16.00;;;;;;;;;;5028453;28;20041;-73
2022/12/18 12:46:01;;;;;;;28.77;15.88;;;;;;;;;;5016531;28;20049;-74
2022/12/18 12:48:38;;;;;;;31.73;21.27;;;;;;;;;;5018476;28;20036;-74
2022/12/18 12:51:25;;;;;;;24.70;13.63;;;;;;;;;;5029700;28;20123;-74
2022/12/18 12:53:54;;;;;;;28.67;14.75;;;;;;;;;;5027388;28;20056;-74
2022/12/18 12:56:23;;;;;;;23.83;13.63;;;;;;;;;;5039275;28;20410;-73
2022/12/18 12:58:59;;;;;;;27.90;14.77;;;;;;;;;;5040576;28;20455;-73
2022/12/18 13:01:33;;;;;;;24.35;13.93;;;;;;;;;;5019396;28;20044;-72
2022/12/18 13:04:09;;;;;;;24.85;14.82;;;;;;;;;;5032091;28;20041;-73
2022/12/18 13:06:48;;;;;;;32.28;15.23;;;;;;;;;;5027315;28;20041;-73
2022/12/18 13:09:16;;;;;;;24.50;13.48;;;;;;;;;;5013805;28;20050;-73
2022/12/18 13:14:34;;;;;;;30.05;17.25;;;;;;;;;;5037098;28;20266;-73
2022/12/18 13:17:20;;;;;;;29.90;15.82;;;;;;;;;;5011691;28;20434;-73
2022/12/18 13:20:11;;;;;;;28.50;15.60;;;;;;;;;;5193501;23;20045;-84
2022/12/18 13:22:41;;;;;;;28.13;15.10;;;;;;;;;;5033631;28;20058;-84
2022/12/18 13:25:28;;;;;;;25.17;13.20;;;;;;;;;;5025069;28;20072;-85
2022/12/18 13:28:01;;;;;;;29.05;14.48;;;;;;;;;;5044651;28;20057;-84
2022/12/18 13:30:31;;;;;;;29.90;16.10;;;;;;;;;;5018207;28;20625;-85
2022/12/18 13:33:17;;;;;;;36.08;18.33;;;;;;;;;;5033287;28;20041;-84
2022/12/18 13:35:47;;;;;;;31.20;16.02;;;;;;;;;;5038629;28;20044;-86
2022/12/18 13:38:34;;;;;;;29.25;15.93;;;;;;;;;;5263543;23;20091;-81
2022/12/18 13:41:18;;;;;;;32.80;16.50;;;;;;;;;;5037507;28;20075;-83
2022/12/18 13:43:53;;;;;;;29.55;16.17;;;;;;;;;;4993206;28;20050;-81
2022/12/18 13:46:24;;;;;;;31.60;17.60;;;;;;;;;;5009309;28;20416;-82
2022/12/18 13:49:21;;;;;;;32.28;18.42;;;;;;;;;;5002579;28;20405;-83
2022/12/18 13:51:50;;;;;;;31.42;17.88;;;;;;;;;;4991946;23;20045;-89
2022/12/18 13:54:29;;;;;;;31.25;15.95;;;;;;;;;;5018210;28;20045;-89
2022/12/18 13:56:56;;;;;;;34.95;20.17;;;;;;;;;;5011000;28;20533;-87
2022/12/18 13:59:27;;;;;;;30.83;18.33;;;;;;;;;;5011592;28;20041;-87
2022/12/18 14:02:19;;;;;;;39.15;19.00;;;;;;;;;;5014097;28;20049;-87
2022/12/18 14:05:12;;;;;;;22.95;13.38;;;;;;;;;;5020952;28;20037;-90
2022/12/18 14:08:07;;;;;;;;;;;;;;;;;;;;;
2022/12/18 14:11:13;;;;;;;25.75;14.30;;;;;;;;;;5027723;28;20051;-89
2022/12/18 14:14:32;;;;;;;24.50;12.88;;;;;;;;;;5006186;28;20052;-90
2022/12/18 14:17:41;;;;;;;20.92;17.55;;;;;;;;;;5027113;28;20038;-90
2022/12/18 14:20:46;;;;;;;22.05;13.93;;;;;;;;;;5010178;28;20075;-88
2022/12/18 14:28:12;;;;;;;21.10;13.70;;;;;;;;;;5018620;28;20144;-90
2022/12/18 14:31:13;;;;;;;17.27;13.60;;;;;;;;;;5016806;28;20049;-91
2022/12/18 14:34:29;;;;;;;23.02;12.30;;;;;;;;;;5002644;28;20423;-89
2022/12/18 14:37:28;;;;;;;29.42;15.18;;;;;;;;;;5017814;28;20132;-90
2022/12/18 15:00:15;;;;;;;20.98;14.13;;;;;;;;;;4934221;29;20103;-89
2022/12/18 15:11:01;;;;;;;30.83;16.95;;;;;;;;;;5060204;26;20422;-84
2022/12/18 15:13:34;;;;;;;23.23;20.45;;;;;;;;;;5053950;28;20029;-81
2022/12/18 15:16:03;;;;;;;33.00;21.60;;;;;;;;;;5041478;28;20053;-85
2022/12/18 15:18:38;;;;;;;26.05;17.88;;;;;;;;;;5053590;28;20396;-84
2022/12/18 15:21:17;;;;;;;22.75;13.55;;;;;;;;;;5058851;28;20474;-85
2022/12/18 15:23:45;;;;;;;24.80;12.38;;;;;;;;;;5055292;28;20084;-85
2022/12/18 15:26:17;;;;;;;25.13;14.13;;;;;;;;;;5027006;28;20042;-86
2022/12/18 15:28:54;;;;;;;27.30;14.55;;;;;;;;;;5023434;28;20049;-84
2022/12/18 15:31:35;;;;;;;20.13;11.20;;;;;;;;;;5043121;28;20041;-85